Time;durP1;ratioP1;P1;durP2;ratioP2;P2;SDS_P1;SDS_P2;PMS_P1;PMS_P2;Temp;Humidity;BMP_temperature;BMP_pressure;BME280_temperature;BME280_humidity;BME280_pressure;Samples;Min_cycle;Max_cycle;Signal;HPM_P1;HPM_P2
2021/08/31 00:00:29;;;;;;;7.60;6.90;;;;;;;14.78;100.00;101441.06;4975036;28;20245;-73
2021/08/31 00:02:57;;;;;;;8.37;6.63;;;;;;;14.75;100.00;101438.06;4974723;28;20228;-73
2021/08/31 00:05:25;;;;;;;7.63;6.27;;;;;;;14.65;100.00;101446.31;4957750;28;20217;-73
2021/08/31 00:07:55;;;;;;;7.03;6.40;;;;;;;14.75;100.00;101446.28;4974847;28;20651;-74
2021/08/31 00:10:23;;;;;;;8.97;6.80;;;;;;;14.72;100.00;101442.19;4959180;28;20253;-73
2021/08/31 00:12:48;;;;;;;8.57;7.03;;;;;;;14.71;100.00;101445.19;4958576;28;20656;-75
2021/08/31 00:15:14;;;;;;;7.60;6.90;;;;;;;14.63;100.00;101437.56;4973738;28;20177;-73
2021/08/31 00:17:40;;;;;;;7.07;6.47;;;;;;;14.71;100.00;101445.19;4990475;28;20212;-73
2021/08/31 00:20:13;;;;;;;7.70;6.90;;;;;;;14.82;100.00;101444.06;4970212;28;20174;-73
2021/08/31 00:22:41;;;;;;;8.00;7.20;;;;;;;14.89;100.00;101436.34;4976618;28;20223;-74
2021/08/31 00:25:09;;;;;;;8.57;7.77;;;;;;;14.84;100.00;101444.59;4963401;28;20206;-76
2021/08/31 00:27:37;;;;;;;8.60;7.70;;;;;;;14.77;100.00;101438.59;4973626;28;20198;-74
2021/08/31 00:30:04;;;;;;;9.53;8.40;;;;;;;14.67;100.00;101447.69;4973774;28;20873;-75
2021/08/31 00:32:30;;;;;;;10.07;8.73;;;;;;;14.60;100.00;101443.59;4958522;28;20229;-72
2021/08/31 00:34:56;;;;;;;10.57;9.47;;;;;;;14.46;100.00;101439.00;4942377;28;20191;-75
2021/08/31 00:37:21;;;;;;;9.93;8.93;;;;;;;14.43;100.00;101436.81;4974485;28;20240;-75
2021/08/31 00:39:49;;;;;;;10.40;9.40;;;;;;;14.34;100.00;101425.66;4970933;28;20189;-73
2021/08/31 00:42:17;;;;;;;11.07;9.67;;;;;;;14.32;100.00;101427.00;4962042;28;20707;-74
2021/08/31 00:44:45;;;;;;;9.83;8.83;;;;;;;14.27;100.00;101427.84;4978012;28;20616;-76
2021/08/31 00:47:11;;;;;;;10.27;8.80;;;;;;;14.21;100.00;101427.31;4993781;28;20261;-76
2021/08/31 00:49:37;;;;;;;9.60;8.57;;;;;;;14.25;100.00;101430.03;4958423;28;20178;-73
2021/08/31 00:52:05;;;;;;;9.40;8.50;;;;;;;14.35;100.00;101445.59;4971364;28;20217;-75
2021/08/31 00:54:31;;;;;;;10.57;9.27;;;;;;;14.22;100.00;101434.44;4966356;28;20201;-74
2021/08/31 00:56:59;;;;;;;10.50;8.60;;;;;;;14.20;100.00;101436.63;4977177;28;20225;-74
2021/08/31 00:59:25;;;;;;;10.20;7.93;;;;;;;14.24;100.00;101447.53;4993420;28;20182;-75
2021/08/31 01:01:54;;;;;;;9.87;8.70;;;;;;;14.31;100.00;101448.06;4993384;28;20304;-75
2021/08/31 01:04:22;;;;;;;10.70;8.93;;;;;;;14.23;100.00;101446.97;4977801;28;20232;-73
2021/08/31 01:06:50;;;;;;;10.73;9.20;;;;;;;14.20;100.00;101447.56;4960913;28;20922;-73
2021/08/31 01:09:24;;;;;;;10.83;9.20;;;;;;;14.29;100.00;101453.00;4957946;28;20190;-74
2021/08/31 01:11:53;;;;;;;10.63;8.90;;;;;;;14.44;100.00;101452.13;4974811;28;20234;-72
2021/08/31 01:14:21;;;;;;;11.70;9.27;;;;;;;14.39;100.00;101458.41;4962670;28;20257;-74
2021/08/31 01:16:51;;;;;;;10.93;9.37;;;;;;;14.32;100.00;101457.91;4992987;28;20708;-75
2021/08/31 01:19:32;;;;;;;11.80;9.27;;;;;;;14.28;100.00;101456.84;4976845;28;20874;-72
2021/08/31 01:22:01;;;;;;;9.63;8.83;;;;;;;14.27;100.00;101452.44;4964911;28;20216;-73
2021/08/31 01:24:29;;;;;;;9.40;8.40;;;;;;;14.16;100.00;101460.13;4952214;28;20209;-74
2021/08/31 01:26:57;;;;;;;10.80;8.97;;;;;;;14.03;100.00;101457.97;4991623;28;20834;-73
2021/08/31 01:29:28;;;;;;;10.10;9.00;;;;;;;14.02;100.00;101456.31;4976015;28;20181;-75
2021/08/31 01:31:56;;;;;;;11.47;8.53;;;;;;;14.10;100.00;101463.94;4992362;28;20269;-74
2021/08/31 01:34:22;;;;;;;9.63;8.67;;;;;;;14.09;100.00;101456.88;4993289;28;20257;-74
2021/08/31 01:36:50;;;;;;;11.17;9.27;;;;;;;13.98;100.00;101458.75;4993457;28;20292;-75
2021/08/31 01:39:16;;;;;;;10.50;9.40;;;;;;;13.83;100.00;101452.50;4991808;28;20193;-74
2021/08/31 01:41:44;;;;;;;9.43;8.13;;;;;;;13.90;100.00;101455.78;4975702;28;20229;-73
2021/08/31 01:44:09;;;;;;;9.83;8.20;;;;;;;13.91;100.00;101460.94;4992464;28;20210;-73
2021/08/31 01:46:35;;;;;;;8.90;7.70;;;;;;;13.81;100.00;101462.88;4971844;28;20276;-73
2021/08/31 01:49:01;;;;;;;9.13;8.20;;;;;;;13.86;100.00;101468.31;4940733;28;20190;-73
2021/08/31 01:51:31;;;;;;;9.97;8.57;;;;;;;13.68;100.00;101459.84;4972551;28;20656;-74
2021/08/31 01:53:57;;;;;;;9.00;8.00;;;;;;;13.80;100.00;101463.94;4988289;28;20181;-72
2021/08/31 01:56:23;;;;;;;10.00;8.40;;;;;;;13.82;100.00;101454.38;4978520;28;20213;-73
2021/08/31 01:58:54;;;;;;;13.27;8.27;;;;;;;13.81;100.00;101465.59;4960561;28;20555;-73
2021/08/31 02:01:19;;;;;;;8.67;7.77;;;;;;;13.60;100.00;101469.41;4975818;28;20706;-73
2021/08/31 02:03:48;;;;;;;8.47;7.77;;;;;;;13.71;100.00;101464.78;4957782;28;20220;-74
2021/08/31 02:06:36;;;;;;;8.60;7.67;;;;;;;13.65;100.00;101463.94;5051019;23;20249;-73
2021/08/31 02:09:02;;;;;;;9.30;7.63;;;;;;;13.68;100.00;101466.16;4964643;28;20189;-73
2021/08/31 02:11:28;;;;;;;7.83;7.07;;;;;;;13.62;100.00;101463.66;4980592;28;20300;-73
2021/08/31 02:13:57;;;;;;;7.63;6.80;;;;;;;13.55;100.00;101472.16;4976587;28;20178;-74
2021/08/31 02:16:22;;;;;;;7.67;6.90;;;;;;;13.44;100.00;101471.56;4957315;28;20305;-73
2021/08/31 02:18:48;;;;;;;8.63;7.13;;;;;;;13.45;100.00;101471.31;4972649;28;20714;-75
2021/08/31 02:21:14;;;;;;;6.90;6.30;;;;;;;13.33;100.00;101464.44;4958306;28;20214;-75
2021/08/31 02:23:40;;;;;;;7.13;6.20;;;;;;;13.25;100.00;101470.44;5002890;28;20589;-74
2021/08/31 02:26:07;;;;;;;9.73;6.47;;;;;;;13.27;100.00;101468.28;4941435;28;20646;-74
2021/08/31 02:28:33;;;;;;;7.30;6.60;;;;;;;13.36;100.00;101467.47;4939702;28;20200;-75
2021/08/31 02:31:04;;;;;;;7.40;6.57;;;;;;;13.24;100.00;101464.19;4979428;28;20228;-74
2021/08/31 02:33:29;;;;;;;7.63;6.43;;;;;;;13.19;100.00;101466.88;4960248;28;20546;-74
2021/08/31 02:35:57;;;;;;;7.90;7.10;;;;;;;13.25;100.00;101465.00;4955588;28;20301;-74
2021/08/31 02:38:24;;;;;;;9.50;6.90;;;;;;;13.19;100.00;101460.63;4971819;28;20186;-74
2021/08/31 02:40:50;;;;;;;7.80;7.10;;;;;;;12.93;100.00;101467.09;4990823;28;20672;-75
2021/08/31 02:43:18;;;;;;;8.20;6.93;;;;;;;12.97;100.00;101461.94;4992789;28;20185;-74
2021/08/31 02:45:46;;;;;;;8.17;6.97;;;;;;;13.07;100.00;101455.38;4975986;28;20874;-75
2021/08/31 02:48:11;;;;;;;8.30;7.50;;;;;;;13.05;100.00;101459.47;4976289;28;20214;-74
2021/08/31 02:50:37;;;;;;;8.83;7.13;;;;;;;13.18;100.00;101458.97;4974808;28;20304;-74
2021/08/31 02:53:05;;;;;;;9.13;8.23;;;;;;;13.05;100.00;101461.41;4968171;28;20590;-74
2021/08/31 02:55:31;;;;;;;10.10;9.10;;;;;;;13.03;100.00;101456.19;4973380;28;20255;-73
2021/08/31 02:57:57;;;;;;;9.93;8.83;;;;;;;13.09;100.00;101455.13;4975602;28;20216;-73
2021/08/31 03:00:28;;;;;;;9.50;8.50;;;;;;;13.11;100.00;101458.41;4959507;28;20674;-77
2021/08/31 03:02:54;;;;;;;12.17;9.10;;;;;;;13.15;100.00;101452.16;4976570;28;20189;-73
2021/08/31 03:05:22;;;;;;;9.43;8.17;;;;;;;13.19;100.00;101450.53;4971606;28;20219;-73
2021/08/31 03:07:51;;;;;;;12.43;9.00;;;;;;;13.18;100.00;101454.31;4958696;28;20204;-74
2021/08/31 03:10:17;;;;;;;11.17;10.00;;;;;;;13.28;100.00;101456.28;4991480;28;20221;-73
2021/08/31 03:12:43;;;;;;;11.80;10.50;;;;;;;13.30;100.00;101457.63;4991840;28;20201;-73
2021/08/31 03:15:09;;;;;;;13.10;9.70;;;;;;;13.29;100.00;101450.53;4959305;28;20185;-75
2021/08/31 03:17:35;;;;;;;10.37;9.37;;;;;;;13.28;100.00;101459.00;4971980;28;20699;-73
2021/08/31 03:20:00;;;;;;;10.03;8.20;;;;;;;13.23;100.00;101456.25;4939849;28;20196;-75
2021/08/31 03:22:28;;;;;;;8.83;7.93;;;;;;;13.11;100.00;101456.50;4976688;28;20267;-72
2021/08/31 03:24:56;;;;;;;11.03;9.07;;;;;;;13.05;100.00;101447.75;4987838;28;20208;-73
2021/08/31 03:27:26;;;;;;;9.23;8.33;;;;;;;13.02;100.00;101440.94;4999423;28;20218;-75
2021/08/31 03:29:52;;;;;;;10.13;9.13;;;;;;;13.10;100.00;101445.88;4975759;28;20193;-74
2021/08/31 03:32:20;;;;;;;14.07;11.00;;;;;;;13.30;100.00;101448.63;4975049;28;20221;-74
2021/08/31 03:34:45;;;;;;;11.63;10.33;;;;;;;13.09;100.00;101450.50;4959571;28;20185;-75
2021/08/31 03:37:11;;;;;;;16.03;10.27;;;;;;;13.08;100.00;101453.50;4958560;28;20727;-73
2021/08/31 03:39:36;;;;;;;12.87;11.10;;;;;;;13.14;100.00;101446.97;4970439;28;20567;-75
2021/08/31 03:42:06;;;;;;;13.90;10.47;;;;;;;13.17;100.00;101447.25;4939731;28;20230;-74
2021/08/31 03:44:36;;;;;;;13.47;10.00;;;;;;;13.24;100.00;101452.44;4972189;28;20729;-73
2021/08/31 03:47:02;;;;;;;9.77;8.77;;;;;;;13.13;100.00;101461.69;4955111;28;20308;-74
2021/08/31 03:49:32;;;;;;;10.37;9.37;;;;;;;13.16;100.00;101461.97;4972371;28;20268;-74
2021/08/31 03:51:58;;;;;;;11.87;8.80;;;;;;;13.13;100.00;101467.13;4983526;28;20228;-73
2021/08/31 03:54:28;;;;;;;9.77;8.77;;;;;;;13.07;100.00;101467.41;4987203;28;20256;-74
2021/08/31 03:56:53;;;;;;;9.70;8.33;;;;;;;13.09;100.00;101460.56;4990600;28;20316;-74
2021/08/31 03:59:21;;;;;;;11.67;9.13;;;;;;;13.01;100.00;101463.03;4959399;28;20193;-74
2021/08/31 04:01:46;;;;;;;12.43;9.00;;;;;;;13.01;100.00;101458.38;4959339;28;20240;-75
2021/08/31 04:04:14;;;;;;;12.37;8.97;;;;;;;13.06;100.00;101465.75;4978964;28;20218;-74
2021/08/31 04:06:40;;;;;;;10.83;9.63;;;;;;;13.16;100.00;101463.88;4993914;28;20225;-74
2021/08/31 04:09:08;;;;;;;12.33;9.50;;;;;;;13.13;100.00;101467.97;4995849;28;20646;-74
2021/08/31 04:11:38;;;;;;;11.90;9.60;;;;;;;12.98;100.00;101469.81;4962700;28;20316;-74
2021/08/31 04:14:06;;;;;;;11.60;9.97;;;;;;;13.00;100.00;101473.09;4996421;28;20197;-76
2021/08/31 04:16:33;;;;;;;11.60;9.50;;;;;;;12.89;100.00;101476.91;4978471;28;20233;-73
2021/08/31 04:19:01;;;;;;;12.97;11.00;;;;;;;12.89;100.00;101476.91;4944287;28;20656;-76
2021/08/31 04:21:27;;;;;;;11.30;10.10;;;;;;;12.91;100.00;101480.19;4963477;28;20225;-73
2021/08/31 04:23:52;;;;;;;11.40;9.03;;;;;;;12.77;100.00;101479.00;5006955;28;20582;-75
2021/08/31 04:26:18;;;;;;;11.33;9.23;;;;;;;12.67;100.00;101472.66;4994395;28;20614;-73
2021/08/31 04:28:44;;;;;;;11.87;9.53;;;;;;;12.60;100.00;101482.16;4960041;28;20549;-74
2021/08/31 04:31:09;;;;;;;14.67;10.77;;;;;;;12.86;100.00;101482.06;4967284;28;20213;-73
2021/08/31 04:33:37;;;;;;;12.57;10.30;;;;;;;12.83;100.00;101479.88;4972456;28;20713;-74
2021/08/31 04:36:05;;;;;;;13.60;10.67;;;;;;;12.80;100.00;101494.03;4995130;28;20246;-74
2021/08/31 04:38:31;;;;;;;15.17;11.80;;;;;;;12.83;100.00;101477.94;4995646;28;20190;-74
2021/08/31 04:40:59;;;;;;;15.13;12.20;;;;;;;12.75;100.00;101486.63;4995084;28;20229;-75
2021/08/31 04:43:27;;;;;;;16.37;12.53;;;;;;;12.91;100.00;101487.53;4987471;28;20186;-74
2021/08/31 04:45:52;;;;;;;13.93;11.93;;;;;;;12.84;100.00;101495.97;4961292;28;20229;-74
2021/08/31 04:48:18;;;;;;;13.73;12.07;;;;;;;12.89;100.00;101496.00;4976940;28;20209;-74
2021/08/31 04:50:46;;;;;;;14.03;11.23;;;;;;;12.83;100.00;101493.50;4976891;28;20271;-73
2021/08/31 04:53:14;;;;;;;12.47;10.97;;;;;;;12.82;100.00;101497.28;4992372;28;20491;-73
2021/08/31 04:55:42;;;;;;;15.73;11.00;;;;;;;12.78;100.00;101513.38;4978722;28;20701;-74
2021/08/31 04:58:09;;;;;;;14.40;11.27;;;;;;;12.79;100.00;101503.25;4979132;28;20256;-75
2021/08/31 05:00:37;;;;;;;13.90;11.27;;;;;;;12.87;100.00;101502.78;4994498;28;20217;-75
2021/08/31 05:03:02;;;;;;;13.87;10.80;;;;;;;12.89;100.00;101503.34;4979160;28;20181;-74
2021/08/31 05:05:30;;;;;;;12.63;10.33;;;;;;;12.89;100.00;101497.88;4994201;28;20256;-72
2021/08/31 05:07:59;;;;;;;14.57;11.37;;;;;;;12.86;100.00;101499.25;4962559;28;20209;-75
2021/08/31 05:10:25;;;;;;;20.97;16.07;;;;;;;12.98;100.00;101502.53;4977621;28;20224;-76
2021/08/31 05:12:55;;;;;;;19.23;14.63;;;;;;;13.06;100.00;101499.31;4994702;28;20189;-76
2021/08/31 05:15:21;;;;;;;19.43;15.13;;;;;;;13.28;100.00;101508.13;4976246;28;20182;-74
2021/08/31 05:17:47;;;;;;;18.73;15.47;;;;;;;13.19;100.00;101509.72;4960988;28;20714;-73
2021/08/31 05:20:12;;;;;;;19.53;16.70;;;;;;;13.34;100.00;101507.03;4977349;28;20181;-73
2021/08/31 05:22:40;;;;;;;19.43;15.90;;;;;;;13.38;100.00;101519.06;4992031;28;20189;-73
2021/08/31 05:25:08;;;;;;;22.70;18.40;;;;;;;13.44;100.00;101517.97;4980411;28;20209;-75
2021/08/31 05:27:36;;;;;;;25.33;19.23;;;;;;;13.39;100.00;101512.50;4997233;28;20209;-74
2021/08/31 05:30:04;;;;;;;27.37;20.10;;;;;;;13.45;100.00;101520.44;4961547;28;20201;-78
2021/08/31 05:32:32;;;;;;;24.90;20.50;;;;;;;13.42;100.00;101520.16;4959107;28;20221;-75
2021/08/31 05:34:58;;;;;;;26.07;20.60;;;;;;;13.42;100.00;101520.16;4991738;28;20648;-75
2021/08/31 05:37:26;;;;;;;23.73;19.63;;;;;;;13.59;100.00;101519.66;4991954;28;20232;-75
2021/08/31 05:39:56;;;;;;;24.33;18.73;;;;;;;13.61;100.00;101522.94;4960986;28;20193;-74
2021/08/31 05:42:22;;;;;;;25.00;20.10;;;;;;;13.86;100.00;101523.78;4976751;28;20231;-75
2021/08/31 05:44:47;;;;;;;25.93;19.30;;;;;;;13.92;100.00;101521.88;4992877;28;20212;-75
2021/08/31 05:47:18;;;;;;;23.03;19.43;;;;;;;13.91;100.00;101526.50;4976272;28;20225;-76
2021/08/31 05:49:46;;;;;;;25.90;20.40;;;;;;;13.80;100.00;101515.03;4967689;28;20613;-74
2021/08/31 05:52:12;;;;;;;24.60;19.83;;;;;;;13.97;100.00;101513.66;4999466;28;20274;-74
2021/08/31 05:54:38;;;;;;;24.90;20.20;;;;;;;14.13;100.00;101518.06;4987530;28;20561;-73
2021/08/31 05:57:06;;;;;;;25.53;19.77;;;;;;;14.00;100.00;101524.03;5011526;28;20267;-74
2021/08/31 05:59:32;;;;;;;24.90;19.43;;;;;;;14.02;100.00;101525.44;4983054;28;20252;-76
2021/08/31 06:02:02;;;;;;;24.87;20.17;;;;;;;14.09;100.00;101519.72;4972001;28;20644;-73
2021/08/31 06:04:28;;;;;;;25.00;20.50;;;;;;;14.23;100.00;101528.97;4966782;28;20202;-75
2021/08/31 06:06:55;;;;;;;22.00;19.47;;;;;;;14.26;100.00;101524.59;4995857;28;20589;-74
2021/08/31 06:09:24;;;;;;;22.73;18.37;;;;;;;14.17;100.00;101524.59;4990517;28;20186;-74
2021/08/31 06:11:56;;;;;;;22.97;17.93;;;;;;;14.46;100.00;101538.22;4992229;28;20348;-75
2021/08/31 06:14:24;;;;;;;22.13;19.40;;;;;;;14.50;100.00;101527.56;4958244;28;20182;-75
2021/08/31 06:16:52;;;;;;;23.40;17.53;;;;;;;14.64;100.00;101529.47;4941239;28;20222;-74
2021/08/31 06:19:21;;;;;;;22.90;17.80;;;;;;;14.72;100.00;101523.41;4978741;28;20178;-76
2021/08/31 06:21:48;;;;;;;21.37;17.53;;;;;;;14.80;100.00;101528.31;4978964;28;20625;-74
2021/08/31 06:24:14;;;;;;;21.13;16.87;;;;;;;14.82;100.00;101534.34;5000278;28;20308;-74
2021/08/31 06:26:40;;;;;;;18.70;16.20;;;;;;;14.83;100.00;101531.28;4974869;28;20233;-74
2021/08/31 06:29:05;;;;;;;18.97;15.40;;;;;;;14.82;100.00;101539.81;4975404;28;20252;-76
2021/08/31 06:31:35;;;;;;;19.37;16.50;;;;;;;14.60;100.00;101536.59;4975119;28;20230;-71
2021/08/31 06:34:06;;;;;;;18.17;15.00;;;;;;;14.91;100.00;101544.44;4975965;28;20178;-73
2021/08/31 06:36:31;;;;;;;17.43;15.03;;;;;;;15.05;100.00;101538.09;4940480;28;20234;-74
2021/08/31 06:38:57;;;;;;;15.53;13.93;;;;;;;15.12;100.00;101530.38;4970133;28;20190;-77
2021/08/31 06:41:22;;;;;;;15.47;13.87;;;;;;;15.11;100.00;101531.47;4954468;28;20284;-77
2021/08/31 06:43:48;;;;;;;15.30;13.33;;;;;;;15.01;100.00;101528.75;4972236;28;20186;-74
2021/08/31 06:46:14;;;;;;;16.47;13.37;;;;;;;15.16;100.00;101534.25;4980240;28;20218;-75
2021/08/31 06:48:43;;;;;;;14.90;13.13;;;;;;;15.25;100.00;101538.00;4993647;28;20185;-71
2021/08/31 06:51:12;;;;;;;16.37;13.47;;;;;;;15.28;100.00;101533.91;4970576;28;20229;-72
2021/08/31 06:53:38;;;;;;;13.73;12.23;;;;;;;15.13;100.00;101537.53;4993615;28;20200;-72
2021/08/31 06:56:04;;;;;;;13.93;12.40;;;;;;;15.51;100.00;101542.25;4964435;28;20217;-73
2021/08/31 06:58:32;;;;;;;14.30;11.87;;;;;;;15.60;100.00;101537.81;4997280;28;20189;-73
2021/08/31 07:00:58;;;;;;;15.13;12.07;;;;;;;15.80;100.00;101547.53;4987520;28;20701;-74
2021/08/31 07:03:24;;;;;;;12.50;11.30;;;;;;;15.93;100.00;101538.69;4970311;28;20202;-73
2021/08/31 07:05:54;;;;;;;14.32;11.57;;;;;;;16.10;100.00;101535.50;4975755;28;20233;-74
2021/08/31 07:08:22;;;;;;;15.43;12.17;;;;;;;16.03;100.00;101530.38;4991363;28;20205;-73
2021/08/31 07:10:48;;;;;;;13.50;11.70;;;;;;;16.04;100.00;101534.72;4991890;28;20694;-74
2021/08/31 07:13:15;;;;;;;16.63;11.20;;;;;;;16.19;100.00;101535.47;4975432;28;20190;-73
2021/08/31 07:15:43;;;;;;;12.77;11.43;;;;;;;16.15;100.00;101530.81;4976720;28;20225;-72
2021/08/31 07:18:09;;;;;;;12.50;11.20;;;;;;;16.26;100.00;101532.38;4993741;28;20201;-72
2021/08/31 07:20:34;;;;;;;11.23;10.13;;;;;;;16.13;100.00;101533.00;4979611;28;20224;-72
2021/08/31 07:23:02;;;;;;;13.57;10.50;;;;;;;16.21;100.00;101529.72;4987814;28;20190;-74
2021/08/31 07:25:30;;;;;;;13.13;10.77;;;;;;;16.23;100.00;101535.72;4988105;28;20228;-74
2021/08/31 07:27:59;;;;;;;12.03;10.10;;;;;;;16.41;100.00;101530.34;4975215;28;20228;-72
2021/08/31 07:30:28;;;;;;;10.63;9.52;;;;;;;16.52;100.00;101531.88;4991104;28;20646;-72
2021/08/31 07:32:55;;;;;;;13.02;9.68;;;;;;;16.55;100.00;101542.25;4975081;28;20177;-73
2021/08/31 07:35:20;;;;;;;11.77;9.33;;;;;;;16.67;100.00;101543.50;4990979;28;20170;-75
2021/08/31 07:37:46;;;;;;;10.50;9.33;;;;;;;16.91;100.00;101530.59;4984362;28;20334;-75
2021/08/31 07:40:12;;;;;;;10.13;8.75;;;;;;;16.89;100.00;101538.31;4995786;28;20208;-73
2021/08/31 07:42:42;;;;;;;10.90;8.65;;;;;;;16.96;100.00;101539.59;4993143;28;20268;-80
2021/08/31 07:45:09;;;;;;;9.10;8.07;;;;;;;17.09;100.00;101538.09;4984964;28;20218;-76
2021/08/31 07:47:35;;;;;;;10.13;7.93;;;;;;;17.25;100.00;101539.53;4981499;28;20210;-81
2021/08/31 07:50:06;;;;;;;8.20;7.40;;;;;;;17.47;100.00;101538.69;4981185;28;20189;-74
2021/08/31 07:52:32;;;;;;;8.63;7.40;;;;;;;17.45;100.00;101538.19;5006718;28;20218;-75
2021/08/31 07:54:58;;;;;;;11.10;7.68;;;;;;;17.70;100.00;101542.50;5011057;28;20185;-75
2021/08/31 07:57:27;;;;;;;10.20;7.95;;;;;;;17.73;100.00;101546.28;4984265;28;20217;-73
2021/08/31 07:59:53;;;;;;;8.05;7.15;;;;;;;17.84;100.00;101552.44;4998426;28;20194;-76
2021/08/31 08:02:21;;;;;;;10.52;7.07;;;;;;;17.84;100.00;101558.75;4980778;28;20741;-74
2021/08/31 08:04:58;;;;;;;8.05;7.25;;;;;;;17.92;100.00;101555.31;4998338;28;20213;-76
2021/08/31 08:07:28;;;;;;;7.63;6.78;;;;;;;18.10;100.00;101556.47;4997203;28;20317;-74
2021/08/31 08:09:59;;;;;;;7.00;6.18;;;;;;;18.22;100.00;101550.19;4997091;28;20186;-75
2021/08/31 08:12:25;;;;;;;7.78;6.32;;;;;;;18.09;100.00;101554.81;4999414;28;20228;-72
2021/08/31 08:14:50;;;;;;;6.78;5.85;;;;;;;18.07;100.00;101560.56;4999523;28;20181;-72
2021/08/31 08:17:20;;;;;;;7.82;5.72;;;;;;;18.18;100.00;101570.34;4962876;28;20233;-74
2021/08/31 08:19:45;;;;;;;6.90;6.20;;;;;;;18.46;100.00;101572.06;4960849;28;20193;-74
2021/08/31 08:22:11;;;;;;;8.27;5.82;;;;;;;18.66;100.00;101567.84;4962506;28;20217;-75
2021/08/31 08:24:43;;;;;;;6.22;5.43;;;;;;;18.72;100.00;101565.81;4994275;28;20664;-79
2021/08/31 08:27:11;;;;;;;7.70;5.70;;;;;;;18.72;100.00;101572.13;4991204;28;20217;-74
2021/08/31 08:29:38;;;;;;;6.28;5.00;;;;;;;18.96;100.00;101572.78;4997082;28;20280;-74
2021/08/31 08:32:14;;;;;;;7.88;5.30;;;;;;;18.84;100.00;101574.38;4964865;28;20226;-72
2021/08/31 08:34:44;;;;;;;5.78;4.82;;;;;;;18.84;100.00;101568.88;4983234;28;20190;-76
2021/08/31 08:37:12;;;;;;;6.47;5.03;;;;;;;18.99;100.00;101562.00;4981646;28;20225;-76
2021/08/31 08:39:40;;;;;;;5.70;5.10;;;;;;;19.14;100.00;101564.44;4997976;28;20174;-73
2021/08/31 08:42:09;;;;;;;6.50;5.30;;;;;;;19.21;100.00;101570.38;4977877;28;20283;-73
2021/08/31 08:44:35;;;;;;;5.70;5.00;;;;;;;19.49;100.00;101574.72;4962591;28;20338;-74
2021/08/31 08:47:00;;;;;;;5.25;4.75;;;;;;;19.61;100.00;101569.50;4980924;28;20714;-75
2021/08/31 08:49:26;;;;;;;6.00;4.68;;;;;;;19.68;100.00;101566.00;4978463;28;20177;-75
2021/08/31 08:51:57;;;;;;;6.10;4.70;;;;;;;19.76;100.00;101572.72;4999871;28;20208;-73
2021/08/31 08:54:25;;;;;;;6.93;4.63;;;;;;;20.05;100.00;101576.75;4990250;28;20177;-75
2021/08/31 08:56:53;;;;;;;6.95;4.97;;;;;;;19.91;100.00;101564.97;4989791;28;20230;-73
2021/08/31 08:59:22;;;;;;;8.10;4.70;;;;;;;19.74;100.00;101573.06;4943567;28;20592;-74
2021/08/31 09:01:50;;;;;;;4.80;4.30;;;;;;;19.84;100.00;101564.56;4990102;28;20703;-74
2021/08/31 09:04:17;;;;;;;5.00;4.47;;;;;;;20.14;100.00;101572.13;4994877;28;20221;-74
2021/08/31 09:06:43;;;;;;;7.47;4.72;;;;;;;20.11;100.00;101581.03;4993465;28;20221;-77
2021/08/31 09:09:12;;;;;;;7.15;4.75;;;;;;;20.16;100.00;101578.13;4977924;28;20189;-74
2021/08/31 09:11:50;;;;;;;5.35;4.35;;;;;;;20.18;100.00;101581.41;4993028;28;20707;-76
2021/08/31 09:14:30;;;;;;;4.40;4.00;;;;;;;20.50;100.00;101574.50;4976085;28;20178;-75
2021/08/31 09:16:59;;;;;;;5.40;4.40;;;;;;;20.46;100.00;101579.03;4976917;28;20609;-77
2021/08/31 09:19:33;;;;;;;7.00;5.53;;;;;;;20.66;100.00;101573.00;4992966;28;20178;-74
2021/08/31 09:22:13;;;;;;;4.95;4.20;;;;;;;20.83;100.00;101578.63;4996663;28;20300;-75
2021/08/31 09:24:41;;;;;;;4.75;4.10;;;;;;;20.98;100.00;101578.22;4985721;28;20620;-74
2021/08/31 09:27:08;;;;;;;4.88;4.32;;;;;;;20.90;100.00;101574.28;4961723;28;20257;-76
2021/08/31 09:29:41;;;;;;;4.55;4.13;;;;;;;20.96;100.00;101578.53;4992993;28;20556;-73
2021/08/31 09:32:11;;;;;;;6.00;4.20;;;;;;;20.92;100.00;101577.53;4978598;28;20214;-74
2021/08/31 09:34:43;;;;;;;7.03;4.20;;;;;;;21.18;100.00;101577.66;4973170;28;20214;-75
2021/08/31 09:37:28;;;;;;;4.13;3.60;;;;;;;21.18;100.00;101580.41;4960397;28;20305;-74
2021/08/31 09:40:04;;;;;;;4.32;3.55;;;;;;;21.37;100.00;101579.84;4995130;28;20240;-74
2021/08/31 09:42:30;;;;;;;5.22;3.63;;;;;;;21.24;100.00;101586.28;4962059;28;20221;-75
2021/08/31 09:45:06;;;;;;;4.40;3.78;;;;;;;21.16;100.00;101571.63;4960780;28;20217;-73
2021/08/31 09:47:40;;;;;;;4.72;3.88;;;;;;;21.19;100.00;101576.50;4992758;28;20253;-73
2021/08/31 09:50:07;;;;;;;4.65;3.85;;;;;;;21.20;99.83;101575.38;4961831;28;20757;-73
2021/08/31 09:52:35;;;;;;;6.30;3.92;;;;;;;21.33;100.00;101570.53;4986081;28;20187;-79
2021/08/31 09:55:00;;;;;;;3.80;3.50;;;;;;;21.01;95.17;101574.81;5000296;28;20574;-72
2021/08/31 09:57:30;;;;;;;4.15;3.75;;;;;;;21.05;100.00;101576.63;4960949;28;20233;-75
2021/08/31 09:59:56;;;;;;;5.10;3.58;;;;;;;21.45;99.16;101558.91;4992947;28;20707;-83
2021/08/31 10:02:22;;;;;;;3.83;3.53;;;;;;;21.76;94.62;101565.97;4974526;28;20249;-73
2021/08/31 10:04:48;;;;;;;4.22;3.50;;;;;;;21.78;87.70;101569.22;4961021;28;20695;-77
2021/08/31 10:07:13;;;;;;;3.90;3.60;;;;;;;21.83;94.73;101555.19;4991021;28;20320;-79
2021/08/31 10:09:39;;;;;;;4.22;3.83;;;;;;;21.87;86.94;101564.50;4972904;28;20190;-77
2021/08/31 10:12:06;;;;;;;5.78;3.45;;;;;;;22.00;86.73;101563.53;4956441;28;20222;-73
2021/08/31 10:14:43;;;;;;;4.50;3.28;;;;;;;21.98;84.24;101565.78;4942135;28;20178;-75
2021/08/31 10:17:13;;;;;;;7.57;3.53;;;;;;;21.82;87.02;101562.69;4975529;28;20229;-77
2021/08/31 10:19:43;;;;;;;4.57;3.53;;;;;;;21.70;86.71;101567.22;4967487;28;20189;-75
2021/08/31 10:22:15;;;;;;;5.32;3.85;;;;;;;22.00;89.23;101578.19;4968797;28;20225;-74
2021/08/31 10:24:51;;;;;;;4.20;3.50;;;;;;;21.89;92.82;101571.31;5003001;28;20216;-78
2021/08/31 10:27:33;;;;;;;4.32;3.40;;;;;;;21.38;92.04;101586.97;4958668;28;20605;-72
2021/08/31 10:30:19;;;;;;;4.40;4.00;;;;;;;21.57;90.53;101581.19;4991078;28;20239;-73
2021/08/31 10:32:49;;;;;;;5.30;3.80;;;;;;;21.85;87.39;101577.81;4992963;28;20209;-78
2021/08/31 10:35:35;;;;;;;3.78;3.38;;;;;;;22.26;87.64;101577.06;4940876;28;20175;-76
2021/08/31 10:38:04;;;;;;;3.80;3.40;;;;;;;22.38;80.73;101580.00;4957071;28;20210;-74
2021/08/31 10:40:31;;;;;;;4.70;3.30;;;;;;;21.89;79.36;101576.06;4956991;28;20218;-77
2021/08/31 10:42:57;;;;;;;5.25;3.30;;;;;;;21.82;81.07;101581.25;4942806;28;20171;-80
2021/08/31 10:45:25;;;;;;;3.45;3.15;;;;;;;22.20;80.60;101588.63;4939836;28;20206;-75
2021/08/31 10:47:51;;;;;;;4.47;3.72;;;;;;;22.07;78.76;101590.38;4958835;28;20309;-75
2021/08/31 10:50:26;;;;;;;3.92;3.45;;;;;;;21.72;79.84;101589.84;4972578;28;20190;-74
2021/08/31 10:53:03;;;;;;;4.13;3.72;;;;;;;21.84;75.34;101595.56;5001760;28;20257;-77
2021/08/31 10:55:29;;;;;;;4.30;3.60;;;;;;;22.09;70.97;101582.56;5007531;28;20582;-75
2021/08/31 10:57:57;;;;;;;3.78;3.47;;;;;;;22.23;76.60;101594.31;5013696;28;20202;-78
2021/08/31 11:00:25;;;;;;;6.60;3.78;;;;;;;22.29;73.57;101593.03;4998594;28;20614;-78
2021/08/31 11:02:59;;;;;;;3.63;3.33;;;;;;;21.65;73.82;101592.31;4995499;28;20220;-76
2021/08/31 11:05:33;;;;;;;4.32;3.50;;;;;;;21.82;76.72;101597.84;4974718;28;20280;-81
2021/08/31 11:08:01;;;;;;;4.57;3.17;;;;;;;22.51;78.59;101587.31;4940164;28;20214;-80
2021/08/31 11:10:28;;;;;;;4.88;3.47;;;;;;;22.79;76.76;101589.34;4988809;28;20225;-81
2021/08/31 11:12:56;;;;;;;4.68;3.63;;;;;;;22.25;77.65;101607.84;4991444;28;20554;-73
2021/08/31 11:15:28;;;;;;;4.22;3.40;;;;;;;22.00;79.08;101600.31;4974673;28;20185;-73